sensor_id;sensor_type;location;lat;lon;timestamp;pressure;altitude;pressure_sealevel;temperature;humidity
63556;BME280;49700;48.072;7.800;2022-09-27T00:01:42;97901.41;;;12.62;70.72
63556;BME280;49700;48.072;7.800;2022-09-27T00:04:10;97895.16;;;12.63;70.93
63556;BME280;49700;48.072;7.800;2022-09-27T00:06:35;97899.59;;;12.63;71.14
63556;BME280;49700;48.072;7.800;2022-09-27T00:09:01;97890.72;;;12.64;71.35
63556;BME280;49700;48.072;7.800;2022-09-27T00:11:38;97887.56;;;12.60;71.34
63556;BME280;49700;48.072;7.800;2022-09-27T00:14:05;97881.63;;;12.58;71.78
63556;BME280;49700;48.072;7.800;2022-09-27T00:16:33;97882.47;;;12.59;71.67
63556;BME280;49700;48.072;7.800;2022-09-27T00:19:01;97879.13;;;12.57;71.97
63556;BME280;49700;48.072;7.800;2022-09-27T00:21:28;97894.13;;;12.56;72.32
63556;BME280;49700;48.072;7.800;2022-09-27T00:23:55;97882.91;;;12.54;72.29
63556;BME280;49700;48.072;7.800;2022-09-27T00:26:21;97889.97;;;12.54;72.72
63556;BME280;49700;48.072;7.800;2022-09-27T00:28:46;97883.22;;;12.51;72.98
63556;BME280;49700;48.072;7.800;2022-09-27T00:31:23;97873.66;;;12.50;73.32
63556;BME280;49700;48.072;7.800;2022-09-27T00:33:50;97884.19;;;12.50;73.48
63556;BME280;49700;48.072;7.800;2022-09-27T00:36:17;97889.47;;;12.50;73.60
63556;BME280;49700;48.072;7.800;2022-09-27T00:38:43;97892.75;;;12.52;73.54
63556;BME280;49700;48.072;7.800;2022-09-27T00:41:15;97901.66;;;12.51;73.67
63556;BME280;49700;48.072;7.800;2022-09-27T00:43:47;97891.94;;;12.52;73.57
63556;BME280;49700;48.072;7.800;2022-09-27T00:46:20;97897.88;;;12.54;73.78
63556;BME280;49700;48.072;7.800;2022-09-27T00:48:47;97907.44;;;12.55;73.80
63556;BME280;49700;48.072;7.800;2022-09-27T00:51:13;97910.38;;;12.52;73.99
63556;BME280;49700;48.072;7.800;2022-09-27T00:53:50;97916.47;;;12.52;74.25
63556;BME280;49700;48.072;7.800;2022-09-27T00:56:19;97924.22;;;12.54;74.19
63556;BME280;49700;48.072;7.800;2022-09-27T00:58:53;97930.63;;;12.51;74.54
63556;BME280;49700;48.072;7.800;2022-09-27T01:01:21;97930.44;;;12.53;74.39
63556;BME280;49700;48.072;7.800;2022-09-27T01:03:52;97926.03;;;12.53;74.55
63556;BME280;49700;48.072;7.800;2022-09-27T01:06:21;97935.56;;;12.54;74.62
63556;BME280;49700;48.072;7.800;2022-09-27T01:08:47;97938.22;;;12.54;74.68
63556;BME280;49700;48.072;7.800;2022-09-27T01:11:18;97943.47;;;12.54;74.79
63556;BME280;49700;48.072;7.800;2022-09-27T01:13:53;97949.56;;;12.55;74.85
63556;BME280;49700;48.072;7.800;2022-09-27T01:16:46;97948.75;;;12.54;74.95
63556;BME280;49700;48.072;7.800;2022-09-27T01:22:16;97953.88;;;12.56;75.16
63556;BME280;49700;48.072;7.800;2022-09-27T01:30:26;97966.75;;;12.59;75.06
63556;BME280;49700;48.072;7.800;2022-09-27T01:38:38;97977.28;;;12.59;75.37
63556;BME280;49700;48.072;7.800;2022-09-27T01:44:36;97985.19;;;12.59;75.63
63556;BME280;49700;48.072;7.800;2022-09-27T01:47:16;97985.00;;;12.60;75.59
63556;BME280;49700;48.072;7.800;2022-09-27T01:50:01;97984.69;;;12.63;75.39
63556;BME280;49700;48.072;7.800;2022-09-27T01:52:40;97978.31;;;12.66;75.53
63556;BME280;49700;48.072;7.800;2022-09-27T01:55:10;97976.53;;;12.67;75.43
63556;BME280;49700;48.072;7.800;2022-09-27T01:57:42;97979.00;;;12.68;75.44
63556;BME280;49700;48.072;7.800;2022-09-27T02:00:16;97984.78;;;12.72;75.49
63556;BME280;49700;48.072;7.800;2022-09-27T02:02:49;97990.59;;;12.75;75.42
63556;BME280;49700;48.072;7.800;2022-09-27T02:05:27;97988.78;;;12.76;75.32
63556;BME280;49700;48.072;7.800;2022-09-27T02:08:06;97989.47;;;12.78;75.28
63556;BME280;49700;48.072;7.800;2022-09-27T02:10:40;97985.16;;;12.77;75.33
63556;BME280;49700;48.072;7.800;2022-09-27T02:13:20;97983.50;;;12.76;75.36
63556;BME280;49700;48.072;7.800;2022-09-27T02:16:24;97992.41;;;12.75;75.49
63556;BME280;49700;48.072;7.800;2022-09-27T02:18:57;97986.28;;;12.74;75.54
63556;BME280;49700;48.072;7.800;2022-09-27T02:21:48;97984.50;;;12.75;75.47
63556;BME280;49700;48.072;7.800;2022-09-27T02:24:29;97991.41;;;12.76;75.47
63556;BME280;49700;48.072;7.800;2022-09-27T02:27:20;97991.72;;;12.73;75.45
63556;BME280;49700;48.072;7.800;2022-09-27T02:29:57;97995.47;;;12.70;75.49
63556;BME280;49700;48.072;7.800;2022-09-27T02:32:25;97993.00;;;12.69;75.54
63556;BME280;49700;48.072;7.800;2022-09-27T02:34:52;97995.63;;;12.69;75.49
63556;BME280;49700;48.072;7.800;2022-09-27T02:37:20;98002.69;;;12.68;75.40
63556;BME280;49700;48.072;7.800;2022-09-27T02:39:46;98003.69;;;12.67;75.54
63556;BME280;49700;48.072;7.800;2022-09-27T02:42:12;97992.47;;;12.65;75.50
63556;BME280;49700;48.072;7.800;2022-09-27T02:44:41;97999.38;;;12.66;75.54
63556;BME280;49700;48.072;7.800;2022-09-27T02:47:18;97995.94;;;12.66;75.56
63556;BME280;49700;48.072;7.800;2022-09-27T02:56:33;98006.09;;;12.60;75.44
63556;BME280;49700;48.072;7.800;2022-09-27T03:05:19;98015.19;;;12.48;75.48
63556;BME280;49700;48.072;7.800;2022-09-27T03:07:45;98012.84;;;12.45;75.56
63556;BME280;49700;48.072;7.800;2022-09-27T03:10:20;98017.44;;;12.43;75.59
63556;BME280;49700;48.072;7.800;2022-09-27T03:12:46;98014.28;;;12.39;75.58
63556;BME280;49700;48.072;7.800;2022-09-27T03:15:12;98020.66;;;12.37;75.73
63556;BME280;49700;48.072;7.800;2022-09-27T03:18:14;98023.75;;;12.32;75.83
63556;BME280;49700;48.072;7.800;2022-09-27T03:20:45;98029.13;;;12.31;75.92
63556;BME280;49700;48.072;7.800;2022-09-27T03:23:15;98025.16;;;12.27;75.90
63556;BME280;49700;48.072;7.800;2022-09-27T03:25:41;98024.34;;;12.26;75.99
63556;BME280;49700;48.072;7.800;2022-09-27T03:28:07;98031.38;;;12.26;75.99
63556;BME280;49700;48.072;7.800;2022-09-27T03:30:33;98032.50;;;12.23;76.05
63556;BME280;49700;48.072;7.800;2022-09-27T03:33:00;98033.34;;;12.24;76.05
63556;BME280;49700;48.072;7.800;2022-09-27T03:35:41;98031.53;;;12.24;76.17
63556;BME280;49700;48.072;7.800;2022-09-27T03:38:08;98029.72;;;12.25;76.12
63556;BME280;49700;48.072;7.800;2022-09-27T03:40:34;98018.22;;;12.26;76.12
63556;BME280;49700;48.072;7.800;2022-09-27T03:43:00;98025.16;;;12.27;76.21
63556;BME280;49700;48.072;7.800;2022-09-27T03:45:26;98028.47;;;12.29;76.15
63556;BME280;49700;48.072;7.800;2022-09-27T03:47:52;98022.53;;;12.27;76.21
63556;BME280;49700;48.072;7.800;2022-09-27T03:50:19;98023.34;;;12.27;76.23
63556;BME280;49700;48.072;7.800;2022-09-27T03:52:45;98026.97;;;12.26;76.25
63556;BME280;49700;48.072;7.800;2022-09-27T03:55:11;98021.84;;;12.25;76.45
63556;BME280;49700;48.072;7.800;2022-09-27T03:57:36;98031.53;;;12.24;76.48
63556;BME280;49700;48.072;7.800;2022-09-27T04:00:04;98033.34;;;12.24;76.48
63556;BME280;49700;48.072;7.800;2022-09-27T04:02:40;98032.66;;;12.22;76.47
63556;BME280;49700;48.072;7.800;2022-09-27T04:05:20;98045.97;;;12.20;76.49
63556;BME280;49700;48.072;7.800;2022-09-27T04:07:49;98052.06;;;12.21;76.45
63556;BME280;49700;48.072;7.800;2022-09-27T04:10:16;98052.91;;;12.21;76.52
63556;BME280;49700;48.072;7.800;2022-09-27T04:12:43;98057.34;;;12.21;76.32
63556;BME280;49700;48.072;7.800;2022-09-27T04:15:09;98059.97;;;12.21;76.25
63556;BME280;49700;48.072;7.800;2022-09-27T04:17:47;98059.28;;;12.18;76.30
63556;BME280;49700;48.072;7.800;2022-09-27T04:20:34;98056.09;;;12.15;76.09
63556;BME280;49700;48.072;7.800;2022-09-27T04:23:06;98059.59;;;12.15;75.99
63556;BME280;49700;48.072;7.800;2022-09-27T04:25:34;98056.25;;;12.13;75.90
63556;BME280;49700;48.072;7.800;2022-09-27T04:28:06;98065.13;;;12.12;75.66
63556;BME280;49700;48.072;7.800;2022-09-27T04:30:32;98062.94;;;12.08;75.59
63556;BME280;49700;48.072;7.800;2022-09-27T04:33:10;98055.34;;;12.05;75.50
63556;BME280;49700;48.072;7.800;2022-09-27T04:35:53;98059.09;;;12.02;75.46
63556;BME280;49700;48.072;7.800;2022-09-27T04:38:45;98068.22;;;11.98;75.36
63556;BME280;49700;48.072;7.800;2022-09-27T04:41:12;98079.72;;;11.97;75.22
63556;BME280;49700;48.072;7.800;2022-09-27T04:43:39;98081.81;;;11.93;75.28
63556;BME280;49700;48.072;7.800;2022-09-27T04:46:05;98098.44;;;11.94;75.13
63556;BME280;49700;48.072;7.800;2022-09-27T04:48:31;98100.22;;;11.93;75.13
63556;BME280;49700;48.072;7.800;2022-09-27T04:50:58;98095.13;;;11.92;75.26
63556;BME280;49700;48.072;7.800;2022-09-27T04:53:24;98108.13;;;11.93;74.98
63556;BME280;49700;48.072;7.800;2022-09-27T04:55:51;98102.03;;;11.93;74.83
63556;BME280;49700;48.072;7.800;2022-09-27T04:58:17;98103.31;;;11.89;74.85
63556;BME280;49700;48.072;7.800;2022-09-27T05:00:43;98100.81;;;11.87;74.44
63556;BME280;49700;48.072;7.800;2022-09-27T05:03:36;98101.06;;;11.84;74.22
63556;BME280;49700;48.072;7.800;2022-09-27T05:06:09;98108.13;;;11.84;74.19
63556;BME280;49700;48.072;7.800;2022-09-27T05:08:34;98114.38;;;11.83;73.92
63556;BME280;49700;48.072;7.800;2022-09-27T05:11:32;98117.00;;;11.83;73.98
63556;BME280;49700;48.072;7.800;2022-09-27T05:14:21;98121.69;;;11.79;73.94
63556;BME280;49700;48.072;7.800;2022-09-27T05:17:02;98133.03;;;11.80;73.92
63556;BME280;49700;48.072;7.800;2022-09-27T05:19:47;98127.78;;;11.80;73.84
63556;BME280;49700;48.072;7.800;2022-09-27T05:22:27;98147.19;;;11.79;74.00
63556;BME280;49700;48.072;7.800;2022-09-27T05:24:52;98158.13;;;11.74;74.16
63556;BME280;49700;48.072;7.800;2022-09-27T05:27:18;98152.84;;;11.74;74.25
63556;BME280;49700;48.072;7.800;2022-09-27T05:29:45;98149.28;;;11.75;74.41
63556;BME280;49700;48.072;7.800;2022-09-27T05:32:19;98151.03;;;11.74;74.49
63556;BME280;49700;48.072;7.800;2022-09-27T05:34:50;98155.66;;;11.72;74.50
63556;BME280;49700;48.072;7.800;2022-09-27T05:37:18;98176.81;;;11.71;74.91
63556;BME280;49700;48.072;7.800;2022-09-27T05:39:43;98174.34;;;11.69;74.93
63556;BME280;49700;48.072;7.800;2022-09-27T05:42:08;98169.06;;;11.69;75.17
63556;BME280;49700;48.072;7.800;2022-09-27T05:44:35;98171.72;;;11.69;75.14
63556;BME280;49700;48.072;7.800;2022-09-27T05:47:02;98181.25;;;11.70;75.07
63556;BME280;49700;48.072;7.800;2022-09-27T05:49:29;98189.84;;;11.72;75.13
63556;BME280;49700;48.072;7.800;2022-09-27T05:51:54;98181.13;;;11.72;75.21
63556;BME280;49700;48.072;7.800;2022-09-27T05:54:20;98183.59;;;11.73;75.37
63556;BME280;49700;48.072;7.800;2022-09-27T05:56:45;98185.94;;;11.77;75.32
63556;BME280;49700;48.072;7.800;2022-09-27T05:59:23;98183.31;;;11.77;75.57
63556;BME280;49700;48.072;7.800;2022-09-27T06:02:16;98183.19;;;11.78;75.13
63556;BME280;49700;48.072;7.800;2022-09-27T06:05:00;98185.94;;;11.77;75.23
63556;BME280;49700;48.072;7.800;2022-09-27T06:07:46;98194.81;;;11.76;75.16
63556;BME280;49700;48.072;7.800;2022-09-27T06:10:18;98201.72;;;11.77;75.15
63556;BME280;49700;48.072;7.800;2022-09-27T06:12:44;98205.34;;;11.76;74.88
63556;BME280;49700;48.072;7.800;2022-09-27T06:15:32;98198.69;;;11.71;74.85
63556;BME280;49700;48.072;7.800;2022-09-27T06:18:02;98202.41;;;11.69;74.51
63556;BME280;49700;48.072;7.800;2022-09-27T06:20:29;98201.59;;;11.68;74.68
63556;BME280;49700;48.072;7.800;2022-09-27T06:23:05;98209.63;;;11.67;74.70
63556;BME280;49700;48.072;7.800;2022-09-27T06:25:32;98206.03;;;11.68;74.61
63556;BME280;49700;48.072;7.800;2022-09-27T06:28:21;98203.53;;;11.66;74.48
63556;BME280;49700;48.072;7.800;2022-09-27T06:30:49;98211.41;;;11.66;74.43
63556;BME280;49700;48.072;7.800;2022-09-27T06:33:22;98222.91;;;11.65;74.25
63556;BME280;49700;48.072;7.800;2022-09-27T06:35:50;98221.94;;;11.66;74.04
63556;BME280;49700;48.072;7.800;2022-09-27T06:38:17;98228.34;;;11.64;73.82
63556;BME280;49700;48.072;7.800;2022-09-27T06:40:52;98230.25;;;11.62;73.73
63556;BME280;49700;48.072;7.800;2022-09-27T06:43:25;98224.31;;;11.60;73.72
63556;BME280;49700;48.072;7.800;2022-09-27T06:46:00;98223.47;;;11.59;73.62
63556;BME280;49700;48.072;7.800;2022-09-27T06:48:43;98226.94;;;11.60;73.57
63556;BME280;49700;48.072;7.800;2022-09-27T06:51:13;98233.84;;;11.61;73.02
63556;BME280;49700;48.072;7.800;2022-09-27T06:53:40;98235.66;;;11.60;73.09
63556;BME280;49700;48.072;7.800;2022-09-27T06:56:05;98239.97;;;11.61;72.90
63556;BME280;49700;48.072;7.800;2022-09-27T06:58:42;98235.25;;;11.65;72.74
63556;BME280;49700;48.072;7.800;2022-09-27T07:01:42;98246.31;;;11.68;72.58
63556;BME280;49700;48.072;7.800;2022-09-27T07:04:23;98244.09;;;11.73;72.52
63556;BME280;49700;48.072;7.800;2022-09-27T07:07:03;98245.06;;;11.82;72.42
63556;BME280;49700;48.072;7.800;2022-09-27T07:09:37;98242.47;;;11.92;72.46
63556;BME280;49700;48.072;7.800;2022-09-27T07:12:04;98247.16;;;11.98;72.15
63556;BME280;49700;48.072;7.800;2022-09-27T07:14:30;98250.22;;;12.03;72.06
63556;BME280;49700;48.072;7.800;2022-09-27T07:16:55;98253.25;;;12.08;71.84
63556;BME280;49700;48.072;7.800;2022-09-27T07:19:23;98260.16;;;12.09;72.01
63556;BME280;49700;48.072;7.800;2022-09-27T07:21:50;98261.03;;;12.10;72.13
63556;BME280;49700;48.072;7.800;2022-09-27T07:24:15;98263.66;;;12.10;72.10
63556;BME280;49700;48.072;7.800;2022-09-27T07:26:41;98265.19;;;12.12;72.20
63556;BME280;49700;48.072;7.800;2022-09-27T07:29:09;98266.00;;;12.13;72.17
63556;BME280;49700;48.072;7.800;2022-09-27T07:31:35;98260.56;;;12.14;71.90
63556;BME280;49700;48.072;7.800;2022-09-27T07:34:02;98251.44;;;12.18;71.78
63556;BME280;49700;48.072;7.800;2022-09-27T07:36:28;98259.06;;;12.22;71.75
63556;BME280;49700;48.072;7.800;2022-09-27T07:38:58;98254.31;;;12.25;71.59
63556;BME280;49700;48.072;7.800;2022-09-27T07:41:26;98251.56;;;12.27;71.41
63556;BME280;49700;48.072;7.800;2022-09-27T07:43:52;98254.91;;;12.29;71.38
63556;BME280;49700;48.072;7.800;2022-09-27T07:46:19;98260.81;;;12.31;71.35
63556;BME280;49700;48.072;7.800;2022-09-27T07:48:52;98262.50;;;12.32;71.38
63556;BME280;49700;48.072;7.800;2022-09-27T07:51:39;98260.81;;;12.31;71.28
63556;BME280;49700;48.072;7.800;2022-09-27T07:54:11;98263.19;;;12.34;71.36
63556;BME280;49700;48.072;7.800;2022-09-27T07:57:06;98272.47;;;12.38;71.33
63556;BME280;49700;48.072;7.800;2022-09-27T07:59:40;98280.06;;;12.41;71.33
63556;BME280;49700;48.072;7.800;2022-09-27T08:02:16;98283.53;;;12.42;71.68
63556;BME280;49700;48.072;7.800;2022-09-27T08:04:42;98282.72;;;12.41;71.49
63556;BME280;49700;48.072;7.800;2022-09-27T08:07:11;98276.47;;;12.42;71.56
63556;BME280;49700;48.072;7.800;2022-09-27T08:09:38;98284.09;;;12.45;71.58
63556;BME280;49700;48.072;7.800;2022-09-27T08:12:04;98286.44;;;12.48;71.47
63556;BME280;49700;48.072;7.800;2022-09-27T08:14:30;98290.72;;;12.49;71.43
63556;BME280;49700;48.072;7.800;2022-09-27T08:16:56;98280.91;;;12.51;71.44
63556;BME280;49700;48.072;7.800;2022-09-27T08:19:39;98280.59;;;12.54;71.50
63556;BME280;49700;48.072;7.800;2022-09-27T08:22:39;98290.03;;;12.57;71.29
63556;BME280;49700;48.072;7.800;2022-09-27T08:25:19;98294.19;;;12.59;71.00
63556;BME280;49700;48.072;7.800;2022-09-27T08:28:03;98300.16;;;12.61;70.64
63556;BME280;49700;48.072;7.800;2022-09-27T08:30:40;98298.88;;;12.66;70.75
63556;BME280;49700;48.072;7.800;2022-09-27T08:33:06;98304.53;;;12.71;70.57
63556;BME280;49700;48.072;7.800;2022-09-27T08:35:31;98316.19;;;12.78;70.71
63556;BME280;49700;48.072;7.800;2022-09-27T08:37:59;98312.97;;;12.84;70.41
63556;BME280;49700;48.072;7.800;2022-09-27T08:40:42;98304.63;;;12.89;70.30
63556;BME280;49700;48.072;7.800;2022-09-27T08:46:04;98301.03;;;12.90;70.43
63556;BME280;49700;48.072;7.800;2022-09-27T08:48:33;98299.22;;;12.90;70.11
63556;BME280;49700;48.072;7.800;2022-09-27T08:51:01;98304.47;;;12.90;69.90
63556;BME280;49700;48.072;7.800;2022-09-27T08:53:40;98299.38;;;12.89;70.06
63556;BME280;49700;48.072;7.800;2022-09-27T08:56:08;98306.59;;;12.87;69.77
63556;BME280;49700;48.072;7.800;2022-09-27T08:58:50;98297.97;;;12.84;69.67
63556;BME280;49700;48.072;7.800;2022-09-27T09:01:21;98296.47;;;12.82;69.82
63556;BME280;49700;48.072;7.800;2022-09-27T09:03:56;98304.38;;;12.82;69.77
63556;BME280;49700;48.072;7.800;2022-09-27T09:17:56;98309.50;;;12.83;69.05
63556;BME280;49700;48.072;7.800;2022-09-27T09:20:57;98307.69;;;12.84;68.93
63556;BME280;49700;48.072;7.800;2022-09-27T09:34:37;98298.66;;;13.52;68.38
63556;BME280;49700;48.072;7.800;2022-09-27T09:45:03;98291.66;;;14.14;67.58
63556;BME280;49700;48.072;7.800;2022-09-27T09:50:31;98273.81;;;14.78;65.71
63556;BME280;49700;48.072;7.800;2022-09-27T09:53:20;98272.84;;;15.13;64.82
63556;BME280;49700;48.072;7.800;2022-09-27T09:55:55;98270.38;;;15.28;64.12
63556;BME280;49700;48.072;7.800;2022-09-27T09:58:30;98274.22;;;15.34;63.63
63556;BME280;49700;48.072;7.800;2022-09-27T10:01:19;98260.38;;;15.48;63.21
63556;BME280;49700;48.072;7.800;2022-09-27T10:03:48;98258.91;;;15.62;62.97
63556;BME280;49700;48.072;7.800;2022-09-27T10:06:15;98259.75;;;15.62;62.75
63556;BME280;49700;48.072;7.800;2022-09-27T10:08:41;98258.25;;;15.60;62.72
63556;BME280;49700;48.072;7.800;2022-09-27T10:11:40;98264.69;;;15.57;62.40
63556;BME280;49700;48.072;7.800;2022-09-27T10:14:15;98259.38;;;15.49;62.68
63556;BME280;49700;48.072;7.800;2022-09-27T10:16:46;98263.97;;;15.39;62.82
63556;BME280;49700;48.072;7.800;2022-09-27T10:19:16;98254.38;;;15.30;62.74
63556;BME280;49700;48.072;7.800;2022-09-27T10:21:45;98247.56;;;15.19;63.19
63556;BME280;49700;48.072;7.800;2022-09-27T10:24:14;98239.75;;;15.09;63.29
63556;BME280;49700;48.072;7.800;2022-09-27T10:26:59;98242.19;;;14.94;63.30
63556;BME280;49700;48.072;7.800;2022-09-27T10:29:34;98242.59;;;14.81;62.86
63556;BME280;49700;48.072;7.800;2022-09-27T10:32:03;98235.63;;;14.72;62.86
63556;BME280;49700;48.072;7.800;2022-09-27T10:34:41;98249.34;;;14.76;62.78
63556;BME280;49700;48.072;7.800;2022-09-27T10:37:17;98240.59;;;14.75;62.64
63556;BME280;49700;48.072;7.800;2022-09-27T10:40:25;98238.78;;;14.76;62.47
63556;BME280;49700;48.072;7.800;2022-09-27T10:42:51;98239.59;;;14.76;62.27
63556;BME280;49700;48.072;7.800;2022-09-27T10:47:57;98227.38;;;14.75;62.20
63556;BME280;49700;48.072;7.800;2022-09-27T10:50:31;98229.03;;;14.76;62.11
63556;BME280;49700;48.072;7.800;2022-09-27T10:53:18;98222.91;;;14.76;61.96
63556;BME280;49700;48.072;7.800;2022-09-27T10:55:52;98225.38;;;14.69;61.72
63556;BME280;49700;48.072;7.800;2022-09-27T11:03:21;98223.91;;;14.49;62.52
63556;BME280;49700;48.072;7.800;2022-09-27T11:05:47;98228.31;;;14.40;62.82
63556;BME280;49700;48.072;7.800;2022-09-27T11:08:19;98225.09;;;14.28;62.72
63556;BME280;49700;48.072;7.800;2022-09-27T11:13:57;98221.31;;;14.05;62.69
63556;BME280;49700;48.072;7.800;2022-09-27T11:16:36;98224.53;;;13.99;62.92
63556;BME280;49700;48.072;7.800;2022-09-27T11:27:03;98221.56;;;13.93;63.97
63556;BME280;49700;48.072;7.800;2022-09-27T11:29:55;98205.84;;;13.92;64.45
63556;BME280;49700;48.072;7.800;2022-09-27T11:41:59;98214.41;;;13.68;66.51
63556;BME280;49700;48.072;7.800;2022-09-27T11:44:47;98208.16;;;13.51;67.51
63556;BME280;49700;48.072;7.800;2022-09-27T11:50:23;98208.19;;;13.23;69.05
63556;BME280;49700;48.072;7.800;2022-09-27T11:53:14;98221.28;;;13.15;70.03
63556;BME280;49700;48.072;7.800;2022-09-27T11:58:38;98244.66;;;13.00;70.86
63556;BME280;49700;48.072;7.800;2022-09-27T12:09:04;98227.09;;;12.54;70.05
63556;BME280;49700;48.072;7.800;2022-09-27T12:11:50;98205.75;;;12.57;70.31
63556;BME280;49700;48.072;7.800;2022-09-27T12:14:35;98196.53;;;12.71;70.32
63556;BME280;49700;48.072;7.800;2022-09-27T12:17:17;98190.19;;;12.91;70.17
63556;BME280;49700;48.072;7.800;2022-09-27T12:19:53;98189.63;;;13.15;70.30
63556;BME280;49700;48.072;7.800;2022-09-27T12:22:37;98190.34;;;13.35;69.97
63556;BME280;49700;48.072;7.800;2022-09-27T12:25:05;98188.63;;;13.44;70.12
63556;BME280;49700;48.072;7.800;2022-09-27T12:27:48;98187.81;;;13.43;70.50
63556;BME280;49700;48.072;7.800;2022-09-27T12:30:20;98184.47;;;13.41;70.74
63556;BME280;49700;48.072;7.800;2022-09-27T12:32:55;98180.88;;;13.42;70.46
63556;BME280;49700;48.072;7.800;2022-09-27T12:35:30;98174.69;;;13.52;69.92
63556;BME280;49700;48.072;7.800;2022-09-27T12:38:09;98169.34;;;13.61;69.53
63556;BME280;49700;48.072;7.800;2022-09-27T12:40:40;98165.78;;;13.70;69.35
63556;BME280;49700;48.072;7.800;2022-09-27T12:43:17;98164.50;;;13.75;69.14
63556;BME280;49700;48.072;7.800;2022-09-27T12:46:35;98181.47;;;13.72;68.94
63556;BME280;49700;48.072;7.800;2022-09-27T12:49:10;98166.75;;;13.69;68.84
63556;BME280;49700;48.072;7.800;2022-09-27T12:51:45;98164.25;;;13.68;68.84
63556;BME280;49700;48.072;7.800;2022-09-27T12:54:45;98172.50;;;13.65;68.78
63556;BME280;49700;48.072;7.800;2022-09-27T13:00:03;98196.47;;;13.54;69.19
63556;BME280;49700;48.072;7.800;2022-09-27T13:11:03;98191.88;;;13.56;68.49
63556;BME280;49700;48.072;7.800;2022-09-27T13:13:34;98197.50;;;13.61;68.45
63556;BME280;49700;48.072;7.800;2022-09-27T13:16:04;98181.53;;;13.62;68.48
63556;BME280;49700;48.072;7.800;2022-09-27T13:21:06;98198.31;;;13.79;68.31
63556;BME280;49700;48.072;7.800;2022-09-27T13:29:01;98189.56;;;13.97;68.74
63556;BME280;49700;48.072;7.800;2022-09-27T13:34:40;98207.47;;;14.11;68.85
63556;BME280;49700;48.072;7.800;2022-09-27T13:37:46;98199.63;;;14.19;68.33
63556;BME280;49700;48.072;7.800;2022-09-27T13:40:26;98200.94;;;14.15;68.09
63556;BME280;49700;48.072;7.800;2022-09-27T13:45:51;98213.66;;;14.20;68.04
63556;BME280;49700;48.072;7.800;2022-09-27T13:48:49;98203.91;;;14.20;67.87
63556;BME280;49700;48.072;7.800;2022-09-27T13:51:42;98205.72;;;14.20;68.00
63556;BME280;49700;48.072;7.800;2022-09-27T13:57:01;98210.88;;;14.21;67.59
63556;BME280;49700;48.072;7.800;2022-09-27T14:02:26;98214.25;;;14.31;67.37
63556;BME280;49700;48.072;7.800;2022-09-27T14:04:55;98201.22;;;14.38;66.54
63556;BME280;49700;48.072;7.800;2022-09-27T14:07:34;98208.00;;;14.41;65.88
63556;BME280;49700;48.072;7.800;2022-09-27T14:10:02;98210.66;;;14.41;65.24
63556;BME280;49700;48.072;7.800;2022-09-27T14:12:33;98206.38;;;14.39;64.52
63556;BME280;49700;48.072;7.800;2022-09-27T14:15:09;98209.97;;;14.38;64.07
63556;BME280;49700;48.072;7.800;2022-09-27T14:17:42;98204.69;;;14.38;63.94
63556;BME280;49700;48.072;7.800;2022-09-27T14:20:30;98197.44;;;14.41;63.95
63556;BME280;49700;48.072;7.800;2022-09-27T14:23:01;98202.78;;;14.49;63.81
63556;BME280;49700;48.072;7.800;2022-09-27T14:25:31;98201.56;;;14.61;63.09
63556;BME280;49700;48.072;7.800;2022-09-27T14:27:57;98206.56;;;14.72;63.00
63556;BME280;49700;48.072;7.800;2022-09-27T14:30:35;98212.56;;;14.82;62.38
63556;BME280;49700;48.072;7.800;2022-09-27T14:33:27;98202.94;;;14.81;61.27
63556;BME280;49700;48.072;7.800;2022-09-27T14:35:53;98203.59;;;14.75;61.06
63556;BME280;49700;48.072;7.800;2022-09-27T14:38:37;98195.28;;;14.62;61.04
63556;BME280;49700;48.072;7.800;2022-09-27T14:41:07;98197.06;;;14.53;61.13
63556;BME280;49700;48.072;7.800;2022-09-27T14:43:35;98199.94;;;14.42;61.10
63556;BME280;49700;48.072;7.800;2022-09-27T14:46:06;98195.56;;;14.33;61.72
63556;BME280;49700;48.072;7.800;2022-09-27T14:48:38;98199.66;;;14.27;61.97
63556;BME280;49700;48.072;7.800;2022-09-27T14:51:18;98200.50;;;14.28;62.40
63556;BME280;49700;48.072;7.800;2022-09-27T14:53:47;98198.03;;;14.26;62.29
63556;BME280;49700;48.072;7.800;2022-09-27T14:56:21;98195.16;;;14.20;62.73
63556;BME280;49700;48.072;7.800;2022-09-27T14:58:53;98199.94;;;14.16;63.13
63556;BME280;49700;48.072;7.800;2022-09-27T15:01:20;98200.06;;;14.14;63.34
63556;BME280;49700;48.072;7.800;2022-09-27T15:03:47;98199.56;;;14.11;63.62
63556;BME280;49700;48.072;7.800;2022-09-27T15:06:14;98186.38;;;14.11;63.54
63556;BME280;49700;48.072;7.800;2022-09-27T15:08:41;98182.91;;;14.10;63.21
63556;BME280;49700;48.072;7.800;2022-09-27T15:11:07;98162.66;;;14.19;63.10
63556;BME280;49700;48.072;7.800;2022-09-27T15:13:35;98163.56;;;14.36;62.85
63556;BME280;49700;48.072;7.800;2022-09-27T15:16:15;98169.09;;;14.51;62.53
63556;BME280;49700;48.072;7.800;2022-09-27T15:18:44;98170.50;;;14.63;62.60
63556;BME280;49700;48.072;7.800;2022-09-27T15:21:27;98165.59;;;14.76;62.74
63556;BME280;49700;48.072;7.800;2022-09-27T15:23:53;98171.13;;;14.91;62.60
63556;BME280;49700;48.072;7.800;2022-09-27T15:26:38;98167.50;;;15.00;62.36
63556;BME280;49700;48.072;7.800;2022-09-27T15:29:05;98171.13;;;14.99;62.34
63556;BME280;49700;48.072;7.800;2022-09-27T15:31:41;98170.63;;;14.96;62.62
63556;BME280;49700;48.072;7.800;2022-09-27T15:34:17;98171.78;;;14.93;62.80
63556;BME280;49700;48.072;7.800;2022-09-27T15:36:57;98175.56;;;14.82;62.75
63556;BME280;49700;48.072;7.800;2022-09-27T15:39:35;98167.06;;;14.71;62.92
63556;BME280;49700;48.072;7.800;2022-09-27T15:42:10;98179.41;;;14.62;63.24
63556;BME280;49700;48.072;7.800;2022-09-27T15:47:39;98176.00;;;14.44;63.32
63556;BME280;49700;48.072;7.800;2022-09-27T15:52:49;98174.25;;;14.26;62.89
63556;BME280;49700;48.072;7.800;2022-09-27T15:55:17;98180.13;;;14.20;63.18
63556;BME280;49700;48.072;7.800;2022-09-27T15:57:47;98190.06;;;14.18;63.17
63556;BME280;49700;48.072;7.800;2022-09-27T16:00:16;98186.72;;;14.16;62.85